Messages - map view · info · telemetry · weather · raw · status · beacons · messages · bulletins · browse · moving · my account
Callsign:
Show:

Loading message packets...

APRS messages are stored for 14 days. It is possible to search using wildcards (*?) after a prefix.

2019-04-25 17:48:36 EDT: SMSGTE>KE8GRY: @2313736138 Great
2019-04-25 17:48:37 EDT: ANSRVR>SM5RVH-1: Now Monitoring RPRNET
2019-04-25 17:48:52 EDT: VA3AFP-9>WA2NAN: hello from Ontario
2019-04-25 17:48:54 EDT: MOBSVR>NWS-WARN: 252230z,SVR_STORM,ALC003-097
2019-04-25 17:48:54 EDT: MOBSVR>NWS_WARN: 252230z,SVR_STORM,ALC003-097
2019-04-25 17:49:02 EDT: SMSGTE>KE8GRY: @2313736138 Great
2019-04-25 17:49:04 EDT: W1CRB-9>SMSGTE: @17743191966 test
2019-04-25 17:49:11 EDT: WN3F-7>SMSGTE: @2025270134? hi from Roy
2019-04-25 17:49:25 EDT: SMSGTE>W1CRB-9: @7743191966 Test response
2019-04-25 17:49:36 EDT: SMSGTE>KE8GRY: @2313736138 Cake me
2019-04-25 17:49:41 EDT: N2MMC-9>K2ZA-9: hi john driving 73
2019-04-25 17:49:53 EDT: N7TAU-3>N7NIX-3: I think my flakey APRA track is due to very poor antenna.
2019-04-25 17:49:54 EDT: MOBSVR>NWS-WARN: 252230z,SVR_STORM,ALC003-097
2019-04-25 17:49:54 EDT: MOBSVR>NWS_WARN: 252230z,SVR_STORM,ALC003-097
2019-04-25 17:50:07 EDT: SMSGTE>KE8GRY: @2313736138 Great
2019-04-25 17:50:07 EDT: SMSGTE>KE8GRY: @2313736138 Cake me
2019-04-25 17:50:20 EDT: LU1HVK-1>APRS: lu1hvk@qsl.net Saludos de Leones - Cordoba AR...
2019-04-25 17:50:22 EDT: SMSGTE>KE8GRY: @2313736138 Hello
2019-04-25 17:50:32 EDT: SMSGTE>VA6PJB-9: @VA6PJB Got your test 1 message
2019-04-25 17:50:32 EDT: SMSGTE>KE8GRY: @2313736138 Great
2019-04-25 17:50:35 EDT: DB0TS-10>DB0TS-9: T#001,000,000,000,000,000,00000000,Test
2019-04-25 17:50:40 EDT: N7QME-2>N7QME: dew 51.6 49.7 54.0 42.9 43.2 43.9 49.0 42.4
2019-04-25 17:50:44 EDT: W9SAR-1>k0gdi: sup
2019-04-25 17:51:07 EDT: SMSGTE>KE8GRY: @2313736138 Cake me
2019-04-25 17:51:11 EDT: N2MMC-9>K2ZA-9: hi john driving 73
2019-04-25 17:51:45 EDT: PU1WAX-2>PU1XJN: boa noite 73
2019-04-25 17:51:52 EDT: G0RSQ>G4FKH: A,-99,-104.7,-106,B,-97.1,-99.6,-100.6,C,-95.8,-111.7,-112.9,D,-88.4,-103,-104.1,E,-108.7,-113,-114.4
2019-04-25 17:51:54 EDT: LMKSVR>NWS-WARN: 252200z,SVR_STORM,INC175
2019-04-25 17:51:54 EDT: LMKSVR>NWS_WARN: 252200z,SVR_STORM,INC175
2019-04-25 17:52:02 EDT: VMWMWW>BOM_WARN: 261400z,WIND,VIC_MW006>007
2019-04-25 17:52:02 EDT: VMWMWW>BOMVMW: Strong Wind Warning for Western Port and Gippsland Lakes
2019-04-25 17:52:02 EDT: VMWMWW>BOMVMW: for Friday
2019-04-25 17:52:02 EDT: SMSGTE>VA6PJB-9: @VA6PJB Got your test 1 message
2019-04-25 17:52:07 EDT: N2MMC-9>K2ZA-9: hi john driving 73
2019-04-25 17:52:07 EDT: SMSGTE>KE8GRY: @2313736138 Great
2019-04-25 17:52:19 EDT: PU1WAX-2>PU1XJN: boa noite 73
2019-04-25 17:52:26 EDT: KM4KAW-9>KM4KAW: SitRep: 10.9988 79.02f
2019-04-25 17:52:31 EDT: SHLBTP>SHLBTP: Info - Cabinet Temp = 76.4F Vcc = 13.6V
2019-04-25 17:52:32 EDT: SMSGTE>KE8GRY: @2313736138 Great
2019-04-25 17:52:37 EDT: SMSGTE>KE8GRY: @2313736138 Cake me
2019-04-25 17:52:50 EDT: SMSGTE>VA6PJB-9: @VA6PJB did I get test 1 right this time?
2019-04-25 17:52:52 EDT: PU1WAX-2>PU1XJN: boa noite 73
2019-04-25 17:53:10 EDT: VK2GJ-2>VK2GJ-7: Directs=VK2AMW-1 VK2BWI-3
2019-04-25 17:53:16 EDT: AS64636>DO4BZ: U:user-so.db0ahi [1]
2019-04-25 17:53:16 EDT: AS64636>DL1NE: U:user-so.db0ahi [2]
2019-04-25 17:53:17 EDT: AS64636>DG4OAE: U:user-so.db0ahi [3]
2019-04-25 17:53:22 EDT: SMSGTE>VA6PJB-9: @VA6PJB did I get test 1 right this time?
2019-04-25 17:53:32 EDT: SMSGTE>VA6PJB-9: @VA6PJB Got your test 1 message
2019-04-25 17:53:43 EDT: MTHOOD>N7QME: temps 53.9 102.5 54.6
2019-04-25 17:53:57 EDT: PU1WAX-2>PU1XJN: boa noite 73
< previous
FAQ · Blog · Discussion group · Linking to aprs.fi · AIS sites · Service status · Database statistics · Advertising on aprs.fi · Technical details · API · Change log · Planned changes · Credits and thanks · Terms Of Service · iPhone/iPad APRS